Time;durP1;ratioP1;P1;durP2;ratioP2;P2;SDS_P1;SDS_P2;PMS_P1;PMS_P2;Temp;Humidity;BMP_temperature;BMP_pressure;BME280_temperature;BME280_humidity;BME280_pressure;Samples;Min_cycle;Max_cycle;Signal;HPM_P1;HPM_P2
2023/01/05 00:01:10;;;;;;;0.97;0.97;;;7.90;99.90;;;;;;4143892;28;20216;-64
2023/01/05 00:03:11;;;;;;;0.80;0.80;;;7.90;99.90;;;;;;4130383;28;20265;-64
2023/01/05 00:05:11;;;;;;;1.33;1.27;;;8.00;99.90;;;;;;4144391;28;20209;-64
2023/01/05 00:07:12;;;;;;;0.83;0.50;;;8.00;99.90;;;;;;4134020;28;20179;-65
2023/01/05 00:09:16;;;;;;;0.83;0.50;;;8.00;99.90;;;;;;4144206;28;20217;-65
2023/01/05 00:23:09;;;;;;;1.77;1.67;;;7.90;99.90;;;;;;4053060;29;20247;-65
2023/01/05 00:25:17;;;;;;;2.83;2.73;;;7.80;99.90;;;;;;4136231;28;20281;-64
2023/01/05 00:27:17;;;;;;;0.70;0.70;;;7.90;99.90;;;;;;4130297;28;20259;-63
2023/01/05 00:29:18;;;;;;;0.67;0.67;;;7.90;99.90;;;;;;4144823;28;20251;-65
2023/01/05 00:31:19;;;;;;;0.80;0.80;;;7.90;99.90;;;;;;4133676;28;20237;-66
2023/01/05 00:33:20;;;;;;;1.20;1.20;;;7.90;99.90;;;;;;4145115;28;20213;-64
2023/01/05 00:35:22;;;;;;;0.67;0.50;;;7.90;99.90;;;;;;4133479;28;20556;-64
2023/01/05 00:37:26;;;;;;;0.53;0.53;;;7.90;99.90;;;;;;4144605;28;20189;-65
2023/01/05 00:39:27;;;;;;;0.60;0.60;;;7.90;99.90;;;;;;4129364;28;20234;-65
2023/01/05 00:41:28;;;;;;;0.77;0.77;;;7.90;99.90;;;;;;4145963;28;20201;-66
2023/01/05 00:43:29;;;;;;;4.23;4.03;;;7.80;99.90;;;;;;4131754;28;20929;-65
2023/01/05 00:45:29;;;;;;;3.83;3.67;;;7.80;99.90;;;;;;4145990;28;20201;-64
2023/01/05 00:47:30;;;;;;;1.30;0.60;;;7.80;99.90;;;;;;4131103;28;20232;-65
2023/01/05 00:49:31;;;;;;;1.00;1.00;;;7.80;99.90;;;;;;4113439;28;20339;-64
2023/01/05 00:51:32;;;;;;;3.77;3.67;;;7.90;99.90;;;;;;4139215;28;20186;-64
2023/01/05 00:53:32;;;;;;;0.60;0.60;;;7.90;99.90;;;;;;4154951;28;20275;-64
2023/01/05 00:55:33;;;;;;;0.63;0.63;;;7.90;99.90;;;;;;4131823;28;20190;-65
2023/01/05 00:57:34;;;;;;;0.60;0.60;;;7.90;99.90;;;;;;4130825;28;20190;-64
2023/01/05 00:59:34;;;;;;;0.40;0.40;;;7.90;99.90;;;;;;4129933;28;20226;-64
2023/01/05 01:01:35;;;;;;;0.40;0.40;;;8.00;99.90;;;;;;4130253;28;20618;-63
2023/01/05 01:03:36;;;;;;;0.50;0.50;;;8.00;99.90;;;;;;4140609;28;20585;-65
2023/01/05 01:05:36;;;;;;;0.40;0.40;;;8.00;99.90;;;;;;4129610;28;20568;-66
2023/01/05 01:07:37;;;;;;;0.40;0.40;;;8.00;99.90;;;;;;4129603;28;20267;-65
2023/01/05 01:09:39;;;;;;;0.43;0.43;;;8.00;99.90;;;;;;4130932;28;20182;-64
2023/01/05 01:11:40;;;;;;;1.33;1.33;;;7.90;99.90;;;;;;4131573;28;20178;-64
2023/01/05 01:13:43;;;;;;;0.40;0.40;;;7.90;99.90;;;;;;4131062;28;20189;-65
2023/01/05 01:15:44;;;;;;;0.57;0.57;;;7.80;99.90;;;;;;4129734;28;20194;-64
2023/01/05 01:17:45;;;;;;;0.47;0.47;;;7.90;99.90;;;;;;4129899;28;20248;-65
2023/01/05 01:19:46;;;;;;;0.90;0.90;;;7.90;99.90;;;;;;4130265;28;20221;-66
2023/01/05 01:21:47;;;;;;;0.30;0.30;;;7.80;99.90;;;;;;4130720;28;20196;-65
2023/01/05 01:23:47;;;;;;;0.40;0.40;;;7.80;99.90;;;;;;4130850;28;20188;-64
2023/01/05 01:25:48;;;;;;;0.30;0.30;;;7.70;99.90;;;;;;4129566;28;20187;-64
2023/01/05 01:27:48;;;;;;;0.20;0.20;;;7.80;99.90;;;;;;4130609;28;20205;-64
2023/01/05 01:29:49;;;;;;;2.20;2.10;;;7.90;99.90;;;;;;4130886;28;20202;-64
2023/01/05 01:31:52;;;;;;;0.60;0.40;;;7.90;99.90;;;;;;4129690;28;20197;-64
2023/01/05 01:33:53;;;;;;;0.40;0.40;;;7.90;99.90;;;;;;4130677;28;20233;-64
2023/01/05 01:35:54;;;;;;;0.40;0.40;;;7.90;99.90;;;;;;4130626;28;20213;-64
2023/01/05 01:37:55;;;;;;;0.40;0.40;;;7.80;99.90;;;;;;4130153;28;20681;-64
2023/01/05 01:39:56;;;;;;;0.40;0.40;;;7.80;99.90;;;;;;4130685;28;20216;-63
2023/01/05 01:41:56;;;;;;;0.20;0.20;;;7.80;99.90;;;;;;4130749;28;20186;-63
2023/01/05 01:43:58;;;;;;;0.63;0.40;;;7.70;99.90;;;;;;4130643;28;20251;-64
2023/01/05 01:45:58;;;;;;;0.30;0.30;;;7.70;99.90;;;;;;4129280;28;20217;-64
2023/01/05 01:48:00;;;;;;;0.40;0.40;;;7.80;99.90;;;;;;4129812;28;20728;-64
2023/01/05 01:50:25;;;;;;;0.40;0.40;;;7.80;99.90;;;;;;4129310;28;20693;-64
2023/01/05 01:52:28;;;;;;;0.67;0.67;;;7.70;99.90;;;;;;4130519;28;20175;-64
2023/01/05 01:54:28;;;;;;;0.40;0.40;;;7.60;99.90;;;;;;4130172;28;20249;-64
2023/01/05 01:56:38;;;;;;;0.33;0.33;;;7.70;99.90;;;;;;4129812;28;20194;-64
2023/01/05 01:58:39;;;;;;;0.40;0.40;;;7.80;99.90;;;;;;4129254;28;20281;-64
2023/01/05 02:00:40;;;;;;;0.30;0.30;;;7.80;99.90;;;;;;4130262;28;20210;-65
2023/01/05 02:02:41;;;;;;;0.40;0.40;;;7.80;99.90;;;;;;4130198;28;20286;-64
2023/01/05 02:04:43;;;;;;;0.53;0.40;;;7.80;99.90;;;;;;4128617;28;20193;-64
2023/01/05 02:06:44;;;;;;;5.30;5.07;;;7.80;99.90;;;;;;4128292;28;20233;-63
2023/01/05 02:08:45;;;;;;;0.43;0.43;;;7.80;99.90;;;;;;4128794;28;20210;-63
2023/01/05 02:11:23;;;;;;;0.73;0.73;;;7.70;99.90;;;;;;4130193;28;20320;-64
2023/01/05 02:13:57;;;;;;;0.40;0.40;;;7.70;99.90;;;;;;4130081;28;20914;-64
2023/01/05 02:16:24;;;;;;;0.63;0.40;;;7.70;99.90;;;;;;4128646;28;20209;-64
2023/01/05 02:19:04;;;;;;;0.50;0.50;;;7.70;99.90;;;;;;4129147;28;20216;-64
2023/01/05 02:21:40;;;;;;;0.87;0.87;;;7.70;99.90;;;;;;4129807;28;20206;-64
2023/01/05 02:24:41;;;;;;;2.60;2.50;;;7.70;99.90;;;;;;4112428;28;20638;-64
2023/01/05 02:27:32;;;;;;;0.50;0.50;;;7.70;99.90;;;;;;4114488;28;20229;-64
2023/01/05 02:29:51;;;;;;;1.33;1.33;;;7.70;99.90;;;;;;4128598;28;20205;-64
2023/01/05 02:32:03;;;;;;;1.77;1.77;;;7.70;99.90;;;;;;4129759;28;20186;-63
2023/01/05 02:34:20;;;;;;;0.30;0.30;;;7.80;99.90;;;;;;4128659;28;20610;-63
2023/01/05 02:36:28;;;;;;;0.40;0.40;;;7.80;99.90;;;;;;4122662;28;20206;-63
2023/01/05 02:38:50;;;;;;;0.60;0.60;;;7.80;99.90;;;;;;4096387;28;20264;-63
2023/01/05 02:40:57;;;;;;;1.73;1.73;;;7.80;99.90;;;;;;4096552;29;20231;-64
2023/01/05 02:43:00;;;;;;;0.53;0.53;;;7.80;99.90;;;;;;4096644;29;21045;-64
2023/01/05 02:45:06;;;;;;;0.30;0.30;;;7.80;99.90;;;;;;4096418;29;20218;-64
2023/01/05 02:47:26;;;;;;;0.40;0.40;;;7.90;99.90;;;;;;4095876;29;20663;-64
2023/01/05 02:49:28;;;;;;;0.40;0.40;;;7.90;99.90;;;;;;4113502;28;20292;-64
2023/01/05 02:51:48;;;;;;;0.30;0.30;;;7.90;99.90;;;;;;4102439;29;20277;-64
2023/01/05 02:53:59;;;;;;;2.50;2.40;;;7.90;99.90;;;;;;4086957;29;20178;-64
2023/01/05 02:56:15;;;;;;;2.70;2.53;;;7.90;99.90;;;;;;4114876;28;20586;-64
2023/01/05 02:58:34;;;;;;;0.50;0.50;;;7.90;99.90;;;;;;4113495;28;20179;-64
2023/01/05 03:00:41;;;;;;;0.40;0.40;;;7.90;99.90;;;;;;4096691;29;20211;-64
2023/01/05 03:02:43;;;;;;;0.40;0.40;;;7.90;99.90;;;;;;4100832;28;20191;-64
2023/01/05 03:05:08;;;;;;;0.30;0.30;;;7.90;99.90;;;;;;4112326;28;20280;-63
2023/01/05 03:07:16;;;;;;;0.70;0.70;;;7.90;99.90;;;;;;4111735;28;20183;-63
2023/01/05 03:09:18;;;;;;;0.33;0.33;;;7.90;99.90;;;;;;4129784;28;20228;-64
2023/01/05 03:13:42;;;;;;;0.33;0.30;;;7.90;99.90;;;;;;4129843;28;20660;-64
2023/01/05 03:15:44;;;;;;;11.50;11.00;;;8.00;99.90;;;;;;4112235;28;20186;-64
2023/01/05 03:17:54;;;;;;;0.30;0.30;;;8.00;99.90;;;;;;4095695;29;20191;-64
2023/01/05 03:19:56;;;;;;;2.83;2.73;;;7.90;99.90;;;;;;4112221;28;20230;-64
2023/01/05 03:36:46;;;;;;;0.40;0.40;;;8.00;99.90;;;;;;4117353;28;20178;-64
2023/01/05 03:38:49;;;;;;;0.30;0.30;;;8.00;99.90;;;;;;4115087;28;20290;-64
2023/01/05 03:40:57;;;;;;;0.40;0.40;;;8.00;99.90;;;;;;4115053;28;20260;-64
2023/01/05 03:42:59;;;;;;;0.40;0.40;;;8.00;99.90;;;;;;4132505;28;20170;-64
2023/01/05 03:45:00;;;;;;;0.30;0.30;;;8.00;99.90;;;;;;4115085;28;20182;-64
2023/01/05 03:47:01;;;;;;;0.47;0.47;;;8.00;99.90;;;;;;4131849;28;20177;-64
2023/01/05 03:49:02;;;;;;;0.50;0.50;;;8.00;99.90;;;;;;4132485;28;20186;-64
2023/01/05 03:51:03;;;;;;;0.83;0.83;;;8.00;99.90;;;;;;4115111;28;20210;-64
2023/01/05 03:53:04;;;;;;;0.30;0.30;;;8.00;99.90;;;;;;4132357;28;20186;-64
2023/01/05 03:55:06;;;;;;;0.40;0.40;;;8.00;99.90;;;;;;4115006;28;20210;-64
2023/01/05 03:57:07;;;;;;;0.43;0.43;;;8.00;99.90;;;;;;4114467;28;20195;-64
2023/01/05 03:59:07;;;;;;;0.30;0.30;;;8.00;99.90;;;;;;4124755;28;20210;-64
2023/01/05 04:01:08;;;;;;;0.30;0.30;;;8.10;99.90;;;;;;4132159;28;20715;-64
2023/01/05 04:03:09;;;;;;;0.57;0.57;;;8.10;99.90;;;;;;4132202;28;20552;-65
2023/01/05 04:05:10;;;;;;;0.43;0.43;;;8.10;99.90;;;;;;4115030;28;20258;-64
2023/01/05 04:07:10;;;;;;;0.60;0.60;;;8.10;99.90;;;;;;4131290;28;20307;-64
2023/01/05 04:09:11;;;;;;;0.33;0.33;;;8.10;99.90;;;;;;4132648;28;20179;-63
2023/01/05 04:11:17;;;;;;;0.47;0.47;;;8.10;99.90;;;;;;4132414;28;20217;-63
2023/01/05 04:13:18;;;;;;;0.60;0.60;;;8.10;99.90;;;;;;4132206;28;20173;-64
2023/01/05 04:15:18;;;;;;;0.40;0.40;;;8.10;99.90;;;;;;4130919;28;20191;-64
2023/01/05 04:17:19;;;;;;;0.30;0.30;;;8.10;99.90;;;;;;4131445;28;20201;-64
2023/01/05 04:19:20;;;;;;;0.40;0.40;;;8.20;99.90;;;;;;4130819;28;20218;-64
2023/01/05 04:21:20;;;;;;;0.83;0.83;;;8.20;99.90;;;;;;4132047;28;20209;-64
2023/01/05 04:23:21;;;;;;;1.43;1.43;;;8.20;99.90;;;;;;4131950;28;20256;-63
2023/01/05 04:25:21;;;;;;;0.30;0.30;;;8.20;99.90;;;;;;4131870;28;20182;-64
2023/01/05 04:27:22;;;;;;;6.23;5.90;;;8.20;99.90;;;;;;4131095;28;20233;-63
2023/01/05 04:29:23;;;;;;;2.03;1.93;;;8.20;99.90;;;;;;4131678;28;20182;-64
2023/01/05 04:31:23;;;;;;;2.73;2.63;;;8.20;99.90;;;;;;4132004;28;20342;-64
2023/01/05 04:33:24;;;;;;;3.23;3.13;;;8.20;99.90;;;;;;4131586;28;20189;-64
2023/01/05 04:35:25;;;;;;;1.10;1.10;;;8.20;99.90;;;;;;4131477;28;20185;-63
2023/01/05 04:37:26;;;;;;;0.60;0.60;;;8.20;99.90;;;;;;4130798;28;20183;-64
2023/01/05 04:39:26;;;;;;;2.30;2.20;;;8.20;99.90;;;;;;4131426;28;20218;-63
2023/01/05 04:41:27;;;;;;;1.37;0.60;;;8.20;99.90;;;;;;4113784;28;20869;-63
2023/01/05 04:43:28;;;;;;;0.40;0.40;;;8.30;99.90;;;;;;4131708;28;20561;-64
2023/01/05 04:45:28;;;;;;;0.40;0.40;;;8.30;99.90;;;;;;4131861;28;20181;-63
2023/01/05 04:47:29;;;;;;;4.47;4.27;;;8.40;99.90;;;;;;4125408;28;20193;-64
2023/01/05 04:49:30;;;;;;;1.07;0.60;;;8.40;99.90;;;;;;4082895;29;20251;-63
2023/01/05 04:51:30;;;;;;;0.40;0.40;;;8.30;99.90;;;;;;4121313;28;20183;-62
2023/01/05 04:53:32;;;;;;;0.37;0.37;;;8.30;99.90;;;;;;4124636;28;20191;-63
2023/01/05 04:55:33;;;;;;;0.50;0.50;;;8.30;99.90;;;;;;4116166;28;20198;-65
2023/01/05 04:57:33;;;;;;;0.40;0.40;;;8.30;99.90;;;;;;4115130;28;20183;-64
2023/01/05 04:59:34;;;;;;;0.30;0.30;;;8.20;99.90;;;;;;4128263;28;20252;-64
2023/01/05 05:01:35;;;;;;;0.93;0.93;;;8.20;99.90;;;;;;4131537;28;20204;-63
2023/01/05 05:03:35;;;;;;;0.30;0.30;;;8.10;99.90;;;;;;4131435;28;20658;-64
2023/01/05 05:05:36;;;;;;;1.37;1.27;;;8.20;99.90;;;;;;4131513;28;20263;-63
2023/01/05 05:07:37;;;;;;;1.33;1.33;;;8.10;99.90;;;;;;4113399;28;20186;-63
2023/01/05 05:09:37;;;;;;;0.47;0.47;;;8.10;99.90;;;;;;4131054;28;20182;-63
2023/01/05 05:11:38;;;;;;;1.30;1.30;;;8.10;99.90;;;;;;4131379;28;20185;-63
2023/01/05 05:13:39;;;;;;;0.70;0.70;;;8.10;99.90;;;;;;4131432;28;20669;-63
2023/01/05 05:15:39;;;;;;;0.50;0.50;;;8.20;99.90;;;;;;4131484;28;20186;-63
2023/01/05 05:17:40;;;;;;;0.43;0.43;;;8.20;99.90;;;;;;4130613;28;20210;-64
2023/01/05 05:19:41;;;;;;;0.70;0.70;;;8.40;99.90;;;;;;4131052;28;20580;-63
2023/01/05 05:21:42;;;;;;;3.60;3.50;;;8.30;99.90;;;;;;4131399;28;20535;-64
2023/01/05 05:23:42;;;;;;;2.10;2.00;;;8.20;99.90;;;;;;4131388;28;20210;-64
2023/01/05 05:25:43;;;;;;;0.60;0.60;;;8.20;99.90;;;;;;4131521;28;20706;-64
2023/01/05 05:27:44;;;;;;;1.03;0.90;;;8.10;99.90;;;;;;4130372;28;20182;-66
2023/01/05 05:29:45;;;;;;;0.67;0.60;;;8.10;99.90;;;;;;4131018;28;20201;-65
2023/01/05 05:31:45;;;;;;;1.07;0.70;;;8.10;99.90;;;;;;4113690;28;20277;-64
2023/01/05 05:33:46;;;;;;;0.80;0.70;;;8.10;99.90;;;;;;4131013;28;20186;-65
2023/01/05 05:35:47;;;;;;;0.40;0.40;;;8.10;99.90;;;;;;4113397;28;20557;-64
2023/01/05 05:37:47;;;;;;;1.60;1.60;;;8.10;99.90;;;;;;4113062;28;20562;-65
2023/01/05 05:39:48;;;;;;;0.50;0.50;;;8.10;99.90;;;;;;4130753;28;20248;-65
2023/01/05 05:41:49;;;;;;;0.70;0.70;;;8.00;99.90;;;;;;4130961;28;20187;-65
2023/01/05 05:43:50;;;;;;;0.60;0.60;;;8.10;99.90;;;;;;4130670;28;20189;-65
2023/01/05 05:45:50;;;;;;;0.70;0.70;;;8.00;99.90;;;;;;4130575;28;20186;-64
2023/01/05 05:47:51;;;;;;;0.40;0.40;;;8.00;99.90;;;;;;4130102;28;20178;-64
2023/01/05 05:49:52;;;;;;;0.50;0.40;;;8.00;99.90;;;;;;4130382;28;20642;-64
2023/01/05 05:51:52;;;;;;;0.47;0.47;;;8.00;99.90;;;;;;4129707;28;20201;-65
2023/01/05 05:53:53;;;;;;;0.43;0.43;;;8.00;99.90;;;;;;4130478;28;20232;-65
2023/01/05 05:55:54;;;;;;;0.53;0.53;;;8.00;99.90;;;;;;4130294;28;20193;-65
2023/01/05 05:57:54;;;;;;;2.80;2.50;;;8.10;99.90;;;;;;4129909;28;20605;-64
2023/01/05 05:59:55;;;;;;;0.37;0.37;;;8.10;99.90;;;;;;4130674;28;20836;-64
2023/01/05 06:01:56;;;;;;;0.60;0.60;;;8.10;99.90;;;;;;4130371;28;20244;-65
2023/01/05 06:03:56;;;;;;;3.07;2.97;;;8.00;99.90;;;;;;4130220;28;20179;-65
2023/01/05 06:05:57;;;;;;;0.47;0.47;;;8.00;99.90;;;;;;4112792;28;20183;-65
2023/01/05 06:07:58;;;;;;;0.50;0.50;;;8.10;99.90;;;;;;4129313;28;20293;-66
2023/01/05 06:09:58;;;;;;;0.93;0.93;;;8.00;99.90;;;;;;4130244;28;20198;-65
2023/01/05 06:11:59;;;;;;;0.57;0.57;;;8.00;99.90;;;;;;4129904;28;20189;-64
2023/01/05 06:14:07;;;;;;;0.80;0.80;;;8.10;99.90;;;;;;4182179;28;21120;-65
2023/01/05 06:16:07;;;;;;;3.73;3.57;;;8.10;99.90;;;;;;4175349;28;20212;-65
2023/01/05 06:18:08;;;;;;;1.50;1.50;;;8.00;99.90;;;;;;4175083;28;20241;-65
2023/01/05 06:20:09;;;;;;;1.20;1.20;;;8.00;99.90;;;;;;4175850;28;20200;-64
2023/01/05 06:22:10;;;;;;;1.33;1.23;;;8.00;99.90;;;;;;4175914;28;20262;-66
2023/01/05 06:24:10;;;;;;;0.50;0.50;;;8.00;99.90;;;;;;4175694;28;20220;-65
2023/01/05 06:26:11;;;;;;;1.13;1.10;;;8.00;99.90;;;;;;4175809;28;20176;-64
2023/01/05 06:28:12;;;;;;;6.07;5.77;;;8.10;99.90;;;;;;4175019;28;20190;-65
2023/01/05 06:30:13;;;;;;;0.80;0.80;;;8.00;99.90;;;;;;4175434;28;20212;-64
2023/01/05 06:32:14;;;;;;;0.97;0.97;;;8.10;99.90;;;;;;4175692;28;20191;-65
2023/01/05 06:34:14;;;;;;;0.60;0.60;;;8.00;99.90;;;;;;4175484;28;20659;-64
2023/01/05 06:36:15;;;;;;;0.67;0.67;;;8.00;99.90;;;;;;4175701;28;20709;-65
2023/01/05 06:38:16;;;;;;;2.53;2.43;;;8.00;99.90;;;;;;4175029;28;20176;-64
2023/01/05 06:40:17;;;;;;;1.70;1.70;;;8.00;99.90;;;;;;4174396;28;20200;-64
2023/01/05 06:42:17;;;;;;;1.27;0.77;;;8.00;99.90;;;;;;4173416;28;20180;-64
2023/01/05 06:44:18;;;;;;;1.10;1.10;;;8.00;99.90;;;;;;4175375;28;20180;-64
2023/01/05 06:46:19;;;;;;;0.50;0.50;;;8.00;99.90;;;;;;4175327;28;20183;-64
2023/01/05 06:48:19;;;;;;;0.70;0.70;;;7.90;99.90;;;;;;4175326;28;20177;-63
2023/01/05 06:50:20;;;;;;;6.60;6.30;;;7.90;99.90;;;;;;4175562;28;20196;-64
2023/01/05 06:52:21;;;;;;;0.90;0.67;;;8.00;99.90;;;;;;4182785;28;20189;-64
2023/01/05 06:54:21;;;;;;;2.23;2.13;;;8.00;99.90;;;;;;4180356;28;20655;-64
2023/01/05 06:56:22;;;;;;;0.70;0.70;;;8.00;99.90;;;;;;4175341;28;20246;-64
2023/01/05 06:58:23;;;;;;;1.63;0.60;;;8.00;99.90;;;;;;4175648;28;20176;-64
2023/01/05 07:00:23;;;;;;;2.30;2.20;;;8.20;99.90;;;;;;4175627;28;20234;-64
2023/01/05 07:02:24;;;;;;;2.80;2.10;;;8.10;99.90;;;;;;4175582;28;20172;-64
2023/01/05 07:04:25;;;;;;;1.00;0.90;;;8.20;99.90;;;;;;4175618;28;20183;-64
2023/01/05 07:06:25;;;;;;;2.60;2.50;;;8.20;99.90;;;;;;4174710;28;20184;-63
2023/01/05 07:08:26;;;;;;;0.30;0.30;;;8.30;99.90;;;;;;4175188;28;20254;-64
2023/01/05 07:10:27;;;;;;;0.97;0.93;;;8.30;99.90;;;;;;4175597;28;20204;-64
2023/01/05 07:12:27;;;;;;;0.50;0.50;;;8.20;99.90;;;;;;4175267;28;20208;-64
2023/01/05 07:14:28;;;;;;;1.17;1.13;;;8.20;99.90;;;;;;4175516;28;20180;-64
2023/01/05 07:16:29;;;;;;;0.70;0.70;;;8.10;99.90;;;;;;4174780;28;20184;-64
2023/01/05 07:18:29;;;;;;;1.40;0.70;;;8.00;99.90;;;;;;4175298;28;20195;-64
2023/01/05 07:20:30;;;;;;;2.10;0.70;;;8.00;99.90;;;;;;4175387;28;20246;-64
2023/01/05 07:22:31;;;;;;;2.40;0.60;;;7.90;99.90;;;;;;4175159;28;20181;-64
2023/01/05 07:24:32;;;;;;;0.63;0.60;;;7.90;99.90;;;;;;4169325;28;20197;-63
2023/01/05 07:26:32;;;;;;;1.87;0.90;;;7.80;99.90;;;;;;4163435;28;20181;-64
2023/01/05 07:28:34;;;;;;;1.77;1.67;;;7.80;99.90;;;;;;4163922;28;20181;-64
2023/01/05 07:30:35;;;;;;;1.13;1.03;;;7.90;99.90;;;;;;4163912;28;20236;-64
2023/01/05 07:32:36;;;;;;;1.50;1.00;;;7.80;99.90;;;;;;4163965;28;20208;-64
2023/01/05 07:34:37;;;;;;;1.23;1.10;;;7.80;99.90;;;;;;4164310;28;20189;-64
2023/01/05 07:36:37;;;;;;;3.00;1.10;;;7.80;99.90;;;;;;4163419;28;20231;-63
2023/01/05 07:38:38;;;;;;;0.77;0.77;;;7.80;99.90;;;;;;4163851;28;20180;-63
2023/01/05 07:40:39;;;;;;;0.70;0.70;;;7.80;99.90;;;;;;4163776;28;20304;-63
2023/01/05 07:42:39;;;;;;;1.73;1.20;;;7.80;99.90;;;;;;4163849;28;20173;-63
2023/01/05 07:44:40;;;;;;;1.20;0.90;;;7.80;99.90;;;;;;4163942;28;20199;-64
2023/01/05 07:46:41;;;;;;;2.00;1.43;;;7.80;99.90;;;;;;4162992;28;20189;-62
2023/01/05 07:48:42;;;;;;;1.77;1.30;;;7.80;99.90;;;;;;4163906;28;20227;-64
2023/01/05 07:50:43;;;;;;;0.70;0.70;;;7.90;99.90;;;;;;4163542;28;20204;-64
2023/01/05 07:52:44;;;;;;;0.60;0.60;;;7.80;99.90;;;;;;4163666;28;20769;-64
2023/01/05 07:54:44;;;;;;;0.60;0.60;;;7.80;99.90;;;;;;4163922;28;20189;-63
2023/01/05 07:56:45;;;;;;;1.07;1.07;;;7.80;99.90;;;;;;4162998;28;20185;-63
2023/01/05 07:58:45;;;;;;;2.10;2.00;;;7.80;99.90;;;;;;4163890;28;20188;-63
2023/01/05 08:00:46;;;;;;;0.60;0.60;;;7.80;99.90;;;;;;4162741;28;20247;-64
2023/01/05 08:02:47;;;;;;;0.80;0.80;;;7.80;99.90;;;;;;4163550;28;20180;-63
2023/01/05 08:04:47;;;;;;;0.53;0.53;;;7.80;99.90;;;;;;4163505;28;20947;-63
2023/01/05 08:06:48;;;;;;;0.63;0.63;;;7.90;99.90;;;;;;4163021;28;20656;-63
2023/01/05 08:08:49;;;;;;;1.67;1.57;;;7.90;99.90;;;;;;4163655;28;20652;-64
2023/01/05 08:10:49;;;;;;;0.70;0.70;;;7.90;99.90;;;;;;4161805;28;20262;-63
2023/01/05 08:15:09;;;;;;;1.00;0.97;;;7.90;99.90;;;;;;4163364;28;20195;-63
2023/01/05 08:17:10;;;;;;;0.70;0.70;;;7.90;99.90;;;;;;4162710;28;20173;-63
2023/01/05 08:19:10;;;;;;;2.33;2.23;;;7.90;99.90;;;;;;4163102;28;20174;-63
2023/01/05 08:21:11;;;;;;;0.70;0.70;;;7.90;99.90;;;;;;4161529;28;20207;-64
2023/01/05 08:23:12;;;;;;;0.60;0.60;;;7.90;99.90;;;;;;4163097;28;20181;-63
2023/01/05 08:25:12;;;;;;;1.47;1.33;;;8.00;99.90;;;;;;4161586;28;20192;-63
2023/01/05 08:27:13;;;;;;;1.10;1.10;;;8.00;99.90;;;;;;4162751;28;20185;-64
2023/01/05 08:29:14;;;;;;;1.07;0.77;;;8.00;99.90;;;;;;4162967;28;20195;-63
2023/01/05 08:31:25;;;;;;;1.03;1.03;;;8.10;99.90;;;;;;4163157;28;20206;-63
2023/01/05 08:33:25;;;;;;;1.27;0.50;;;8.00;99.90;;;;;;4161667;28;20204;-63
2023/01/05 08:35:26;;;;;;;1.57;1.43;;;8.10;99.90;;;;;;4162573;28;20181;-64
2023/01/05 08:37:26;;;;;;;0.80;0.80;;;8.10;99.90;;;;;;4161563;28;20182;-63
2023/01/05 08:39:27;;;;;;;2.43;2.23;;;8.10;99.90;;;;;;4162458;28;20185;-63
2023/01/05 08:41:34;;;;;;;1.10;0.90;;;8.00;99.90;;;;;;4148893;28;20193;-64
2023/01/05 08:43:35;;;;;;;1.30;1.00;;;8.00;99.90;;;;;;4146444;28;20189;-64
2023/01/05 08:45:35;;;;;;;1.53;1.30;;;8.00;99.90;;;;;;4146475;28;20192;-64
2023/01/05 08:47:36;;;;;;;1.20;0.90;;;8.10;99.90;;;;;;4145880;28;20192;-64
2023/01/05 08:49:37;;;;;;;1.40;0.70;;;8.10;99.90;;;;;;4146466;28;20189;-64
2023/01/05 08:51:37;;;;;;;3.00;0.80;;;8.20;99.90;;;;;;4150656;28;20187;-63
2023/01/05 08:53:38;;;;;;;3.80;0.70;;;8.10;99.90;;;;;;4170587;28;20218;-63
2023/01/05 08:55:39;;;;;;;0.70;0.60;;;8.20;99.90;;;;;;4168587;28;20185;-64
2023/01/05 08:57:39;;;;;;;1.33;1.03;;;8.20;99.90;;;;;;4162339;28;20187;-63
2023/01/05 08:59:40;;;;;;;0.90;0.80;;;8.30;99.90;;;;;;4163083;28;20189;-63
2023/01/05 09:01:41;;;;;;;0.67;0.67;;;8.40;99.90;;;;;;4163230;28;20660;-63
2023/01/05 09:03:41;;;;;;;0.67;0.67;;;8.40;99.90;;;;;;4162876;28;20180;-63
2023/01/05 09:05:42;;;;;;;2.73;0.90;;;8.40;99.90;;;;;;4162752;28;20181;-62
2023/01/05 09:07:43;;;;;;;1.37;0.80;;;8.40;99.90;;;;;;4161902;28;20563;-63
2023/01/05 09:09:44;;;;;;;0.70;0.70;;;8.50;99.90;;;;;;4162735;28;20180;-63
2023/01/05 09:11:45;;;;;;;1.33;1.20;;;8.50;99.90;;;;;;4162825;28;20283;-63
2023/01/05 09:13:57;;;;;;;1.60;1.13;;;8.50;99.90;;;;;;4162349;28;20254;-64
2023/01/05 09:16:04;;;;;;;2.23;1.50;;;8.50;99.90;;;;;;4162563;28;20731;-63
2023/01/05 09:18:05;;;;;;;0.60;0.60;;;8.50;99.90;;;;;;4160676;28;20211;-63
2023/01/05 09:20:07;;;;;;;3.03;2.43;;;8.60;99.90;;;;;;4162310;28;20679;-64
2023/01/05 09:22:07;;;;;;;0.60;0.60;;;8.70;99.90;;;;;;4162514;28;20231;-65
2023/01/05 09:24:13;;;;;;;2.00;1.80;;;8.60;99.90;;;;;;4162412;28;20188;-64
2023/01/05 09:26:15;;;;;;;0.70;0.47;;;8.50;99.90;;;;;;4162365;28;20651;-64
2023/01/05 09:28:15;;;;;;;3.07;2.87;;;8.60;99.90;;;;;;4161508;28;20644;-64
2023/01/05 09:30:16;;;;;;;0.87;0.80;;;8.40;99.90;;;;;;4162053;28;20200;-64
2023/01/05 09:32:16;;;;;;;0.87;0.80;;;8.30;99.90;;;;;;4162022;28;20201;-64
2023/01/05 09:34:18;;;;;;;2.20;1.37;;;8.30;99.90;;;;;;4162000;28;20221;-65
2023/01/05 09:36:18;;;;;;;3.20;0.90;;;8.30;99.90;;;;;;4161907;28;20185;-63
2023/01/05 09:38:19;;;;;;;2.33;0.93;;;8.20;99.90;;;;;;4161599;28;20226;-64
2023/01/05 09:40:20;;;;;;;2.00;1.20;;;8.10;99.90;;;;;;4162134;28;20293;-64
2023/01/05 09:42:25;;;;;;;2.17;1.50;;;8.00;99.90;;;;;;4160933;28;20181;-64
2023/01/05 09:44:51;;;;;;;2.10;1.13;;;7.90;99.90;;;;;;4160889;28;20254;-64
2023/01/05 09:47:03;;;;;;;3.33;1.13;;;7.80;99.90;;;;;;4158579;28;20193;-64
2023/01/05 09:49:12;;;;;;;1.87;1.07;;;7.80;99.90;;;;;;4160880;28;20181;-64
2023/01/05 09:51:13;;;;;;;6.97;1.30;;;7.90;99.90;;;;;;4161917;28;20276;-64
2023/01/05 09:53:18;;;;;;;2.43;1.10;;;7.80;99.90;;;;;;4161693;28;20259;-64
2023/01/05 09:55:22;;;;;;;3.77;1.00;;;8.00;99.90;;;;;;4162153;28;20219;-64
2023/01/05 09:57:26;;;;;;;4.80;1.43;;;8.00;99.90;;;;;;4161591;28;20181;-64
2023/01/05 09:59:38;;;;;;;1.80;1.30;;;8.20;99.90;;;;;;4160931;28;20184;-64
2023/01/05 10:01:40;;;;;;;2.83;0.90;;;8.20;99.90;;;;;;4165683;28;20176;-64
2023/01/05 10:03:56;;;;;;;3.60;2.10;;;8.20;99.90;;;;;;4170746;28;20260;-64
2023/01/05 10:05:58;;;;;;;1.77;1.30;;;8.20;99.90;;;;;;4168686;28;20192;-64
2023/01/05 10:08:29;;;;;;;4.07;2.30;;;8.20;99.90;;;;;;4169805;28;20173;-64
2023/01/05 10:13:31;;;;;;;3.87;1.30;;;8.10;99.90;;;;;;4172161;28;20219;-64
2023/01/05 10:15:41;;;;;;;5.60;2.57;;;8.00;99.90;;;;;;4170384;28;20188;-63
2023/01/05 10:17:43;;;;;;;3.93;2.50;;;7.90;99.90;;;;;;4169834;28;20184;-63
2023/01/05 10:19:44;;;;;;;2.77;1.10;;;8.00;99.90;;;;;;4163806;28;20693;-64
2023/01/05 10:22:27;;;;;;;3.10;1.30;;;8.00;99.90;;;;;;4160709;28;20185;-62
2023/01/05 10:24:44;;;;;;;2.70;1.00;;;8.20;99.90;;;;;;4152904;28;20207;-64
2023/01/05 10:27:26;;;;;;;2.23;0.80;;;8.50;99.90;;;;;;4161377;28;20185;-65
2023/01/05 10:29:39;;;;;;;3.53;1.17;;;8.50;99.90;;;;;;4155514;28;20208;-64
2023/01/05 10:32:03;;;;;;;1.53;0.90;;;8.40;99.90;;;;;;4160931;28;20558;-64
2023/01/05 10:34:22;;;;;;;2.27;1.33;;;8.40;99.90;;;;;;4161750;28;20234;-64
2023/01/05 10:37:21;;;;;;;5.70;1.50;;;8.40;99.90;;;;;;4151852;28;20190;-64
2023/01/05 10:39:47;;;;;;;2.83;1.50;;;8.50;99.90;;;;;;4151215;28;20852;-64
2023/01/05 10:42:05;;;;;;;3.97;1.17;;;8.50;99.90;;;;;;4145424;28;20248;-64
2023/01/05 10:44:31;;;;;;;1.93;1.30;;;8.60;99.90;;;;;;4145361;28;20181;-64
2023/01/05 10:46:34;;;;;;;2.00;1.13;;;8.80;99.90;;;;;;4144924;28;20193;-65
2023/01/05 10:48:35;;;;;;;4.87;1.40;;;9.00;99.90;;;;;;4145619;28;20186;-64
2023/01/05 10:50:42;;;;;;;4.97;0.90;;;9.00;99.90;;;;;;4144171;28;20206;-64
2023/01/05 10:52:45;;;;;;;2.37;0.97;;;9.10;99.90;;;;;;4143884;28;20247;-64
2023/01/05 10:54:56;;;;;;;2.07;0.90;;;9.10;99.90;;;;;;4151230;28;20215;-64
2023/01/05 10:57:27;;;;;;;2.77;1.20;;;9.20;99.90;;;;;;4148822;28;20196;-64
2023/01/05 10:59:27;;;;;;;7.27;2.27;;;9.20;99.90;;;;;;4158676;28;20274;-63
2023/01/05 11:01:29;;;;;;;3.40;1.10;;;9.40;99.90;;;;;;4165104;28;20181;-64
2023/01/05 11:03:38;;;;;;;5.27;1.53;;;9.70;99.90;;;;;;4164904;28;20185;-64
2023/01/05 11:05:44;;;;;;;2.27;1.20;;;10.20;99.90;;;;;;4163745;28;20691;-64
2023/01/05 11:08:10;;;;;;;3.63;1.07;;;10.50;99.90;;;;;;4162893;28;20196;-64
2023/01/05 11:10:34;;;;;;;1.13;0.90;;;10.50;99.60;;;;;;4160687;28;20292;-64
2023/01/05 11:12:36;;;;;;;2.00;0.90;;;10.10;99.90;;;;;;4164411;28;20219;-64
2023/01/05 11:14:42;;;;;;;3.13;1.27;;;10.00;99.90;;;;;;4164278;28;20193;-64
2023/01/05 11:16:50;;;;;;;2.97;1.03;;;9.70;99.90;;;;;;4162306;28;20187;-63
2023/01/05 11:18:58;;;;;;;3.57;1.30;;;9.40;99.90;;;;;;4163023;28;20180;-63
2023/01/05 11:21:12;;;;;;;4.33;1.37;;;9.40;99.90;;;;;;4164011;28;20227;-63
2023/01/05 11:23:44;;;;;;;5.10;4.67;;;9.50;99.90;;;;;;4164278;28;20193;-64
2023/01/05 11:25:45;;;;;;;1.83;1.00;;;9.40;99.90;;;;;;4163174;28;20192;-62
2023/01/05 11:27:46;;;;;;;1.93;0.90;;;9.50;99.90;;;;;;4164012;28;20185;-63
2023/01/05 11:30:15;;;;;;;2.13;0.80;;;9.90;99.90;;;;;;4165522;28;20314;-63
2023/01/05 11:32:16;;;;;;;3.53;1.03;;;9.90;99.90;;;;;;4164196;28;20193;-64